Terminal Aerodrome Forecast
Issued by NWS Grand Forks, ND

Home | Current Version | Previous Version | Text Only | Print | Product List | Glossary Off
Versions: 1 2 3 4 5 6 7 8 9 10 11 12 13 14 15 16 17 18 19 20 21

000
FTUS43 KFGF 201100
TAFFAR
TAF
KFAR 201131Z 2012/2112 14007KT P6SM SKC
     FM201600 16011KT P6SM SCT150
     FM202100 16016G22KT P6SM BKN250
     FM210300 13014KT P6SM VCTS BKN050CB
     FM211000 11006KT P6SM BKN100=

USA.gov is the U.S. government's official web portal to all federal, state and local government web resources and services.